Airfield :
LOGIN :

Register | Disclaimer

   EN    FR    IT 

 










Legend :    VFR   Marginal VFR   IFR   Intensive IFR   Very Intensive IFR
Visi :
Ceiling :
>= 8 km
>= 3000ft
5 to 8 km
1000 to 3000 ft
1500m to 5 km
500 to 1000 ft
800 to 1500m
200 to 500 ft
< 800m
< 200 ft
Symbols :   Thunderstorms  Fog  Heavy snow  Heavy precipitations  Wind > 20 kt
SIGMETs :     Misc.  Thunderstorms  Icing  Turbulence  Mountain Waves  Volcanic Ashes






- Airport Elevation : 1260 ft
- IATA code : LDE


LFBT - Tarbes / Ossun

CURRENT METAR :
  • 040230Z AUTO 26003KT 9999 FEW025 BKN031 14/12 Q1025 NOSIG

EXPIRED METARs :
  • 040200Z AUTO VRB03KT 9999 BKN028 OVC034 15/12 Q1025 NOSIG
  • 040130Z AUTO VRB02KT 9999 BKN024 BKN035 OVC042 15/13 Q1025 NOSIG
  • 040100Z AUTO 27003KT 9999 BKN028 BKN034 OVC047 15/13 Q1025 NOSIG
  • 040030Z AUTO 24003KT 9999 BKN031 OVC048 16/12 Q1025 NOSIG
  • 040000Z AUTO 28004KT 240V310 9999 OVC031 16/12 Q1025 NOSIG

TAF TAF LFBT
Valid from the 04 at 00:00 until the 05 at 00:00 UTC


032300Z 0400/0424 VRB03KT 9999 BKN040
BECMG 0412/0414 CAVOK



MET'MAP, your aeronautical weather chart ! - Copyright ORBIFLY December 2007 - Disclaimer

ORBIFLY MET'MAP TEAM :

Programming & Development : Alexandra Zaïnal
Concept & original design : Baudouin d'Aumeries
Assistance for programming : Marc-Olivier Méhu
Technical & hardware support : Manuel Goepfert

Contact : metmap@orbifly.com




SOURCES & CREDITS :

   NOAA